Time;durP1;ratioP1;P1;durP2;ratioP2;P2;SDS_P1;SDS_P2;PMS_P1;PMS_P2;Temp;Humidity;BMP_temperature;BMP_pressure;BME280_temperature;BME280_humidity;BME280_pressure;Samples;Min_cycle;Max_cycle;Signal;HPM_P1;HPM_P2
2023/04/07 00:01:01;;;;;;;13.35;6.53;;;7.10;99.90;;;;;;5039549;28;25148;-75
2023/04/07 00:03:29;;;;;;;12.88;7.15;;;7.10;99.90;;;;;;5038795;28;25063;-75
2023/04/07 00:05:57;;;;;;;12.02;6.97;;;7.10;99.90;;;;;;5021273;28;25068;-75
2023/04/07 00:08:24;;;;;;;13.60;6.97;;;7.10;99.90;;;;;;5039198;28;25100;-75
2023/04/07 00:10:51;;;;;;;12.45;7.32;;;7.20;99.90;;;;;;5039300;28;25101;-75
2023/04/07 00:13:18;;;;;;;10.20;5.85;;;7.20;99.90;;;;;;5021064;28;25119;-75
2023/04/07 00:15:45;;;;;;;14.43;7.72;;;7.20;99.90;;;;;;5020985;28;25055;-75
2023/04/07 00:18:13;;;;;;;11.93;5.60;;;7.20;99.90;;;;;;5038527;28;25072;-75
2023/04/07 00:20:40;;;;;;;14.98;6.38;;;7.20;99.90;;;;;;5038944;28;25060;-75
2023/04/07 00:23:07;;;;;;;10.38;6.20;;;7.30;99.90;;;;;;5038354;28;25112;-75
2023/04/07 00:25:35;;;;;;;14.13;6.10;;;7.30;99.90;;;;;;5038709;28;25121;-75
2023/04/07 00:28:03;;;;;;;12.23;6.60;;;7.30;99.90;;;;;;5038336;28;25057;-75
2023/04/07 00:30:31;;;;;;;12.85;5.20;;;7.30;99.90;;;;;;5038531;28;25143;-75
2023/04/07 00:32:58;;;;;;;8.25;4.75;;;7.30;99.90;;;;;;5020684;28;25105;-75
2023/04/07 00:35:25;;;;;;;12.68;5.65;;;7.40;99.90;;;;;;5038827;28;25077;-75
2023/04/07 00:37:53;;;;;;;8.40;4.57;;;7.40;99.90;;;;;;5038176;28;25073;-75
2023/04/07 00:40:20;;;;;;;9.18;5.28;;;7.50;99.90;;;;;;5038292;28;25068;-75
2023/04/07 00:42:47;;;;;;;8.65;5.22;;;7.40;99.90;;;;;;5020541;28;25066;-75
2023/04/07 00:45:14;;;;;;;9.40;5.40;;;7.50;99.90;;;;;;5038328;28;25057;-75
2023/04/07 00:47:42;;;;;;;8.90;5.13;;;7.50;99.90;;;;;;5020306;28;25076;-75
2023/04/07 00:50:09;;;;;;;7.72;4.85;;;7.50;99.90;;;;;;5020335;28;25162;-75
2023/04/07 00:52:37;;;;;;;9.90;5.32;;;7.50;99.90;;;;;;5038385;28;25081;-75
2023/04/07 00:55:04;;;;;;;8.18;4.93;;;7.50;99.90;;;;;;5020203;28;25075;-75
2023/04/07 00:57:31;;;;;;;9.57;5.03;;;7.50;99.90;;;;;;5037979;28;25060;-75
2023/04/07 00:59:58;;;;;;;8.07;5.13;;;7.50;99.90;;;;;;5037999;28;25063;-75
2023/04/07 01:03:05;;;;;;;11.52;5.00;;;7.50;99.90;;;;;;5038134;28;25123;-75
2023/04/07 01:05:55;;;;;;;10.85;4.60;;;7.50;99.90;;;;;;5037923;28;25052;-75
2023/04/07 01:08:31;;;;;;;9.93;5.15;;;7.40;99.90;;;;;;5037614;28;25064;-75
2023/04/07 01:11:17;;;;;;;7.45;4.90;;;7.40;99.90;;;;;;5037952;28;25122;-75
2023/04/07 01:13:52;;;;;;;8.23;5.15;;;7.40;99.90;;;;;;5019878;28;25132;-75
2023/04/07 01:16:36;;;;;;;8.70;4.97;;;7.40;99.90;;;;;;5020022;28;25065;-75
2023/04/07 01:19:34;;;;;;;10.70;5.65;;;7.40;99.90;;;;;;5037333;28;25068;-75
2023/04/07 01:22:07;;;;;;;8.90;5.07;;;7.30;99.90;;;;;;5037309;28;25059;-75
2023/04/07 01:25:06;;;;;;;9.25;5.32;;;7.30;99.90;;;;;;5037076;28;25059;-75
2023/04/07 01:28:02;;;;;;;12.88;5.47;;;7.20;99.90;;;;;;5037207;28;25084;-75
2023/04/07 01:30:34;;;;;;;9.77;5.05;;;7.20;99.90;;;;;;5037480;28;25073;-75
2023/04/07 01:33:03;;;;;;;8.32;5.03;;;7.10;99.90;;;;;;5037049;28;25121;-75
2023/04/07 01:35:34;;;;;;;9.82;5.35;;;7.00;99.90;;;;;;5037496;28;25088;-75
2023/04/07 01:38:03;;;;;;;11.30;5.32;;;7.00;99.90;;;;;;5036396;28;25074;-75
2023/04/07 01:40:34;;;;;;;10.65;6.00;;;7.00;99.90;;;;;;5037010;28;25062;-75
2023/04/07 01:43:01;;;;;;;14.73;6.00;;;6.90;99.90;;;;;;5036908;28;25066;-75
2023/04/07 01:45:31;;;;;;;8.90;5.57;;;6.90;99.90;;;;;;5036983;28;25092;-75
2023/04/07 01:47:59;;;;;;;14.50;6.80;;;6.90;99.90;;;;;;5036705;28;25081;-74
2023/04/07 01:50:29;;;;;;;11.65;6.22;;;6.80;99.90;;;;;;5036624;28;25056;-75
2023/04/07 01:52:56;;;;;;;10.45;6.35;;;6.80;99.90;;;;;;5019169;28;25138;-75
2023/04/07 01:55:25;;;;;;;11.27;6.72;;;6.80;99.90;;;;;;5036930;28;25084;-75
2023/04/07 01:57:53;;;;;;;11.63;6.15;;;6.70;99.90;;;;;;5036745;28;25107;-75
2023/04/07 02:00:21;;;;;;;10.13;6.05;;;6.70;99.90;;;;;;5019406;28;25078;-75
2023/04/07 02:02:52;;;;;;;10.70;6.63;;;6.70;99.90;;;;;;5037115;28;25102;-74
2023/04/07 02:05:21;;;;;;;10.73;6.43;;;6.70;99.90;;;;;;5036516;28;25084;-75
2023/04/07 02:08:00;;;;;;;11.90;4.97;;;6.70;99.90;;;;;;5019246;28;25130;-75
2023/04/07 02:10:33;;;;;;;11.35;6.43;;;6.60;99.90;;;;;;5037317;28;25113;-75
2023/04/07 02:13:02;;;;;;;9.00;5.75;;;6.60;99.90;;;;;;5036975;28;25070;-75
2023/04/07 02:15:33;;;;;;;11.05;6.50;;;6.60;99.90;;;;;;5037001;28;25059;-75
2023/04/07 02:18:02;;;;;;;11.65;6.03;;;6.50;99.90;;;;;;5036982;28;25123;-75
2023/04/07 02:20:30;;;;;;;11.02;5.85;;;6.50;99.90;;;;;;5036864;28;25120;-75
2023/04/07 02:22:58;;;;;;;11.48;6.18;;;6.40;99.90;;;;;;5036542;28;25079;-74
2023/04/07 02:25:31;;;;;;;9.15;5.45;;;6.40;99.90;;;;;;5036647;28;25053;-75
2023/04/07 02:28:00;;;;;;;10.50;5.97;;;6.30;99.90;;;;;;5036257;28;25065;-75
2023/04/07 02:30:27;;;;;;;11.10;6.72;;;6.30;99.90;;;;;;5036948;28;25065;-75
2023/04/07 02:32:55;;;;;;;9.85;5.85;;;6.30;99.90;;;;;;5036447;28;25092;-75
2023/04/07 02:35:23;;;;;;;10.48;6.22;;;6.20;99.90;;;;;;5036225;28;25086;-75
2023/04/07 02:37:50;;;;;;;10.85;6.13;;;6.20;99.90;;;;;;5018666;28;25072;-75
2023/04/07 02:40:18;;;;;;;12.60;6.40;;;6.20;99.90;;;;;;5018722;28;25076;-75
2023/04/07 02:42:46;;;;;;;12.00;6.47;;;6.20;99.90;;;;;;5018903;28;25116;-75
2023/04/07 02:45:13;;;;;;;10.02;5.93;;;6.20;99.90;;;;;;5036090;28;25050;-75
2023/04/07 02:47:41;;;;;;;13.23;6.68;;;6.20;99.90;;;;;;5036615;28;25071;-75
2023/04/07 02:50:08;;;;;;;10.73;6.25;;;6.10;99.90;;;;;;5020883;28;25064;-75
2023/04/07 02:52:36;;;;;;;14.05;6.72;;;6.10;99.90;;;;;;5022492;28;25130;-75
2023/04/07 02:55:03;;;;;;;16.33;7.03;;;6.10;99.90;;;;;;5022817;28;25099;-75
2023/04/07 02:57:31;;;;;;;13.05;6.35;;;6.10;99.90;;;;;;5022487;28;25046;-75
2023/04/07 02:59:58;;;;;;;13.45;6.72;;;6.00;99.90;;;;;;5040291;28;25071;-75
2023/04/07 03:02:25;;;;;;;13.00;6.43;;;6.00;99.90;;;;;;5020835;28;25100;-75
2023/04/07 03:04:53;;;;;;;13.45;6.93;;;6.00;99.90;;;;;;5022358;28;25064;-75
2023/04/07 03:07:20;;;;;;;12.63;6.90;;;6.00;99.90;;;;;;5022299;28;25114;-75
2023/04/07 03:09:48;;;;;;;15.38;7.15;;;5.90;99.90;;;;;;5039798;28;25057;-75
2023/04/07 03:12:15;;;;;;;10.93;6.72;;;5.90;99.90;;;;;;5039836;28;25084;-75
2023/04/07 03:14:42;;;;;;;11.75;6.60;;;5.90;99.90;;;;;;5039678;28;25071;-75
2023/04/07 03:17:10;;;;;;;11.65;6.45;;;5.90;99.90;;;;;;5022169;28;25112;-75
2023/04/07 03:19:37;;;;;;;13.85;6.97;;;5.90;99.90;;;;;;5039892;28;25062;-75
2023/04/07 03:22:05;;;;;;;12.77;6.72;;;5.80;99.90;;;;;;5021600;28;25064;-75
2023/04/07 03:24:32;;;;;;;12.40;6.35;;;5.90;99.90;;;;;;5039926;28;25061;-75
2023/04/07 03:27:01;;;;;;;14.02;6.50;;;5.80;99.90;;;;;;5039748;28;25113;-75
2023/04/07 03:29:28;;;;;;;12.73;6.75;;;5.90;99.90;;;;;;5039483;28;25063;-75
2023/04/07 03:31:55;;;;;;;12.85;6.63;;;5.90;99.90;;;;;;5039765;28;25062;-75
2023/04/07 03:34:22;;;;;;;12.73;6.68;;;5.90;99.90;;;;;;5039350;28;25076;-75
2023/04/07 03:36:50;;;;;;;13.65;6.47;;;6.00;99.90;;;;;;5021821;28;25112;-75
2023/04/07 03:39:17;;;;;;;12.18;6.25;;;6.00;99.90;;;;;;5039173;28;25076;-75
2023/04/07 03:41:45;;;;;;;11.88;5.65;;;6.00;99.90;;;;;;5039621;28;25123;-75
2023/04/07 03:44:12;;;;;;;14.23;6.88;;;6.00;99.90;;;;;;5021600;28;25073;-75
2023/04/07 03:46:40;;;;;;;11.95;6.60;;;6.10;99.90;;;;;;5037849;28;25057;-75
2023/04/07 03:49:07;;;;;;;11.70;6.15;;;6.10;99.90;;;;;;5021290;28;25112;-75
2023/04/07 03:51:34;;;;;;;12.80;7.45;;;6.10;99.90;;;;;;5039373;28;25121;-75
2023/04/07 03:54:02;;;;;;;12.02;6.22;;;6.10;99.90;;;;;;5038912;28;25074;-75
2023/04/07 03:56:30;;;;;;;13.18;7.35;;;6.10;99.90;;;;;;5021439;28;25063;-75
2023/04/07 03:58:57;;;;;;;15.13;7.18;;;6.10;99.90;;;;;;5039481;28;25092;-75
2023/04/07 04:01:25;;;;;;;14.45;6.90;;;6.10;99.90;;;;;;5038518;28;25058;-75
2023/04/07 04:03:52;;;;;;;11.77;6.68;;;6.10;99.90;;;;;;5039345;28;25068;-75
2023/04/07 04:06:19;;;;;;;12.35;6.65;;;6.10;99.90;;;;;;5021150;28;25157;-75
2023/04/07 04:08:47;;;;;;;11.93;6.38;;;6.00;99.90;;;;;;5019497;28;25084;-75
2023/04/07 04:11:15;;;;;;;13.63;6.45;;;6.00;99.90;;;;;;5038883;28;25062;-75
2023/04/07 04:13:42;;;;;;;12.10;7.07;;;6.00;99.90;;;;;;5021081;28;25078;-75
2023/04/07 04:16:09;;;;;;;13.75;6.85;;;6.00;99.90;;;;;;5038620;28;25126;-75
2023/04/07 04:18:36;;;;;;;12.65;7.10;;;6.00;99.90;;;;;;5038549;28;25066;-75
2023/04/07 04:21:04;;;;;;;11.00;6.25;;;5.90;99.90;;;;;;5037614;28;25125;-75
2023/04/07 04:23:31;;;;;;;10.85;5.93;;;5.80;99.90;;;;;;5020846;28;25055;-75
2023/04/07 04:25:59;;;;;;;10.98;5.78;;;5.80;99.90;;;;;;5038653;28;25090;-75
2023/04/07 04:28:26;;;;;;;12.05;5.80;;;5.80;99.90;;;;;;5021368;28;25108;-75
2023/04/07 04:30:54;;;;;;;12.75;6.78;;;5.80;99.90;;;;;;5037896;28;25055;-75
2023/04/07 04:33:21;;;;;;;12.85;5.50;;;5.70;99.90;;;;;;5038483;28;25057;-75
2023/04/07 04:35:49;;;;;;;14.88;6.55;;;5.70;99.90;;;;;;5020885;28;25071;-75
2023/04/07 04:38:16;;;;;;;9.80;5.15;;;5.70;99.90;;;;;;5038346;28;25146;-75
2023/04/07 04:40:43;;;;;;;10.43;5.45;;;5.60;99.90;;;;;;5020728;28;25057;-75
2023/04/07 04:43:10;;;;;;;10.90;5.10;;;5.60;99.90;;;;;;5038635;28;25062;-75
2023/04/07 04:45:37;;;;;;;8.70;5.55;;;5.60;99.90;;;;;;5038599;28;25084;-75
2023/04/07 04:48:05;;;;;;;10.48;5.68;;;5.60;99.90;;;;;;5038526;28;25070;-75
2023/04/07 04:50:33;;;;;;;10.93;5.90;;;5.50;99.90;;;;;;5021496;28;25131;-75
2023/04/07 04:53:00;;;;;;;10.93;6.07;;;5.50;99.90;;;;;;5017929;28;25118;-75
2023/04/07 04:55:27;;;;;;;13.80;6.43;;;5.40;99.90;;;;;;5000697;28;25112;-75
2023/04/07 04:57:55;;;;;;;10.90;6.03;;;5.40;99.90;;;;;;5000507;28;25048;-75
2023/04/07 05:00:22;;;;;;;9.07;6.05;;;5.30;99.90;;;;;;5000725;28;25063;-75
2023/04/07 05:02:50;;;;;;;11.82;6.20;;;5.30;99.90;;;;;;5000492;28;25113;-75
2023/04/07 05:05:18;;;;;;;11.52;6.70;;;5.20;99.90;;;;;;4998673;28;25112;-75
2023/04/07 05:07:45;;;;;;;11.27;6.57;;;5.10;99.90;;;;;;5018401;28;25059;-75
2023/04/07 05:10:13;;;;;;;13.82;6.38;;;5.10;99.90;;;;;;5017949;28;25065;-75
2023/04/07 05:12:40;;;;;;;14.45;6.70;;;5.00;99.90;;;;;;4999450;28;25134;-75
2023/04/07 05:15:08;;;;;;;12.35;6.55;;;5.00;99.90;;;;;;5018052;28;25145;-74
2023/04/07 05:17:36;;;;;;;10.05;6.22;;;4.90;99.90;;;;;;5018177;28;25109;-75
2023/04/07 05:20:04;;;;;;;11.77;6.70;;;4.90;99.90;;;;;;5018407;28;25110;-75
2023/04/07 05:22:32;;;;;;;13.85;6.22;;;4.80;99.90;;;;;;5017600;28;25064;-75
2023/04/07 05:24:59;;;;;;;13.35;6.75;;;4.80;99.90;;;;;;5015680;28;25082;-75
2023/04/07 05:27:27;;;;;;;13.38;7.15;;;4.70;99.90;;;;;;5017501;28;25079;-75
2023/04/07 05:29:54;;;;;;;15.25;7.95;;;4.70;99.90;;;;;;5017942;28;25061;-75
2023/04/07 05:32:21;;;;;;;14.43;7.35;;;4.70;99.90;;;;;;5016594;28;24937;-75
2023/04/07 05:34:48;;;;;;;14.05;7.75;;;4.60;99.90;;;;;;4999857;28;25060;-75
2023/04/07 05:37:16;;;;;;;17.27;7.85;;;4.60;99.90;;;;;;5000119;28;25122;-74
2023/04/07 05:39:43;;;;;;;14.25;7.82;;;4.60;99.90;;;;;;5017230;28;25083;-78
2023/04/07 05:42:10;;;;;;;12.45;6.65;;;4.60;99.90;;;;;;5015389;28;25103;-76
2023/04/07 05:44:37;;;;;;;11.13;6.40;;;4.60;99.90;;;;;;5017391;28;25046;-76
2023/04/07 05:47:07;;;;;;;13.45;6.40;;;4.60;99.90;;;;;;4999843;28;25054;-76
2023/04/07 05:49:35;;;;;;;12.80;7.07;;;4.50;99.90;;;;;;5007706;28;25068;-76
2023/04/07 05:52:04;;;;;;;11.57;6.45;;;4.50;99.90;;;;;;5019210;28;25055;-76
2023/04/07 05:54:32;;;;;;;12.45;6.22;;;4.50;99.90;;;;;;5018485;28;25119;-77
2023/04/07 05:56:59;;;;;;;20.23;9.93;;;4.50;99.90;;;;;;5035150;28;25064;-76
2023/04/07 05:59:26;;;;;;;45.40;20.17;;;4.50;99.90;;;;;;5019148;28;25156;-79
2023/04/07 06:01:54;;;;;;;26.05;12.48;;;4.50;99.90;;;;;;5037941;28;25060;-77
2023/04/07 06:04:21;;;;;;;33.58;14.93;;;4.50;99.90;;;;;;5036892;28;25103;-78
2023/04/07 06:06:48;;;;;;;16.60;8.35;;;4.50;99.90;;;;;;5020019;28;25129;-78
2023/04/07 06:09:16;;;;;;;12.18;7.90;;;4.50;99.90;;;;;;5036497;28;25112;-79
2023/04/07 06:11:45;;;;;;;14.80;6.80;;;4.60;99.90;;;;;;5019150;28;25053;-77
2023/04/07 06:14:13;;;;;;;12.07;7.07;;;4.60;99.90;;;;;;5036432;28;25109;-76
2023/04/07 06:16:40;;;;;;;13.10;6.93;;;4.70;99.90;;;;;;5018960;28;25064;-78
2023/04/07 06:19:07;;;;;;;12.88;7.10;;;4.70;99.90;;;;;;5036928;28;25071;-77
2023/04/07 06:21:35;;;;;;;15.30;7.78;;;4.70;99.90;;;;;;5036384;28;25120;-77
2023/04/07 06:24:02;;;;;;;13.48;7.65;;;4.70;99.90;;;;;;5018592;28;25115;-77
2023/04/07 06:26:30;;;;;;;13.38;7.68;;;4.70;99.90;;;;;;5019001;28;25094;-79
2023/04/07 06:28:58;;;;;;;13.70;7.88;;;4.80;99.90;;;;;;5018734;28;25051;-76
2023/04/07 06:31:26;;;;;;;18.88;8.25;;;4.80;99.90;;;;;;5036132;28;25116;-76
2023/04/07 06:33:53;;;;;;;19.90;8.38;;;4.80;99.90;;;;;;5036741;28;25059;-75
2023/04/07 06:36:20;;;;;;;16.65;8.35;;;4.80;99.90;;;;;;5036354;28;25126;-73
2023/04/07 06:38:47;;;;;;;13.20;7.45;;;4.80;99.90;;;;;;5018529;28;25078;-73
2023/04/07 06:41:18;;;;;;;14.93;8.43;;;4.90;99.90;;;;;;5036450;28;25060;-74
2023/04/07 06:43:53;;;;;;;19.33;7.97;;;4.90;99.90;;;;;;5036129;28;25083;-73
2023/04/07 06:46:20;;;;;;;16.50;8.73;;;4.90;99.90;;;;;;5036139;28;25123;-73
2023/04/07 06:48:47;;;;;;;11.35;7.30;;;5.00;99.90;;;;;;5016645;28;25062;-71
2023/04/07 06:51:14;;;;;;;13.10;7.38;;;5.00;99.90;;;;;;5016764;28;25103;-72
2023/04/07 06:53:43;;;;;;;12.82;7.70;;;5.10;99.90;;;;;;4998794;28;25073;-73
2023/04/07 06:56:10;;;;;;;18.40;9.70;;;5.20;99.90;;;;;;5016826;28;25058;-73
2023/04/07 06:58:38;;;;;;;14.50;8.65;;;5.30;99.90;;;;;;5016322;28;25122;-73
2023/04/07 07:01:06;;;;;;;12.02;7.05;;;5.40;99.90;;;;;;5016383;28;25100;-72
2023/04/07 07:03:33;;;;;;;14.73;6.80;;;5.50;99.90;;;;;;5016131;28;25063;-73
2023/04/07 07:06:01;;;;;;;13.70;6.18;;;5.60;99.90;;;;;;5016703;28;25070;-74
2023/04/07 07:08:29;;;;;;;12.48;6.20;;;5.80;99.90;;;;;;5016142;28;25131;-74
2023/04/07 07:10:57;;;;;;;12.18;6.45;;;5.90;99.90;;;;;;4998797;28;25076;-74
2023/04/07 07:13:26;;;;;;;10.10;6.65;;;6.00;99.90;;;;;;5016381;28;25077;-71
2023/04/07 07:15:54;;;;;;;11.30;6.88;;;6.20;99.90;;;;;;5016094;28;25085;-71
2023/04/07 07:18:22;;;;;;;12.15;5.80;;;6.30;99.90;;;;;;5015985;28;25077;-71
2023/04/07 07:20:49;;;;;;;10.75;6.55;;;6.40;99.90;;;;;;5016799;28;25070;-71
2023/04/07 07:23:17;;;;;;;11.48;6.28;;;6.50;99.90;;;;;;5015935;28;25078;-70
2023/04/07 07:25:44;;;;;;;9.77;6.50;;;6.50;99.90;;;;;;4998489;28;25119;-72
2023/04/07 07:28:12;;;;;;;12.70;6.20;;;6.60;99.90;;;;;;5016508;28;25057;-71
2023/04/07 07:30:40;;;;;;;8.93;5.68;;;6.60;99.90;;;;;;5016112;28;25064;-76
2023/04/07 07:33:08;;;;;;;11.85;5.47;;;6.60;99.90;;;;;;5015881;28;25096;-76
2023/04/07 07:35:36;;;;;;;8.20;5.10;;;6.70;99.90;;;;;;4999828;28;25104;-71
2023/04/07 07:38:04;;;;;;;9.27;5.50;;;6.70;99.90;;;;;;5019401;28;25074;-71
2023/04/07 07:40:32;;;;;;;10.13;4.80;;;6.80;99.90;;;;;;5019572;28;25067;-72
2023/04/07 07:43:00;;;;;;;9.05;5.13;;;6.90;99.90;;;;;;5020017;28;25054;-71
2023/04/07 07:45:28;;;;;;;12.05;5.50;;;7.00;99.90;;;;;;5019428;28;25119;-71
2023/04/07 07:47:55;;;;;;;8.45;4.63;;;7.20;99.90;;;;;;5019330;28;25088;-72
2023/04/07 07:50:23;;;;;;;8.63;5.25;;;7.30;99.90;;;;;;5033909;28;25080;-71
2023/04/07 07:52:50;;;;;;;7.38;4.65;;;7.40;99.90;;;;;;5039528;28;25075;-71
2023/04/07 07:55:19;;;;;;;7.80;4.90;;;7.50;99.90;;;;;;5038911;28;25062;-70
2023/04/07 07:57:48;;;;;;;9.00;4.28;;;7.60;99.90;;;;;;5039016;28;25141;-71
2023/04/07 08:00:16;;;;;;;7.70;4.65;;;7.70;99.90;;;;;;5039197;28;25062;-71
2023/04/07 08:02:43;;;;;;;8.98;4.70;;;7.80;99.90;;;;;;5038785;28;25090;-71
2023/04/07 08:05:11;;;;;;;10.15;5.13;;;7.80;99.90;;;;;;5039298;28;25063;-71
2023/04/07 08:07:39;;;;;;;9.52;5.43;;;7.90;99.90;;;;;;5039331;28;25078;-71
2023/04/07 08:10:07;;;;;;;9.38;5.45;;;8.00;99.90;;;;;;5038627;28;25090;-71
2023/04/07 08:12:34;;;;;;;11.00;5.45;;;8.00;99.90;;;;;;5038520;28;25067;-71
2023/04/07 08:15:02;;;;;;;9.77;5.50;;;8.10;99.90;;;;;;5021235;28;25062;-71
2023/04/07 08:17:30;;;;;;;11.40;5.00;;;8.20;99.90;;;;;;5039117;28;25110;-71
2023/04/07 08:19:57;;;;;;;9.38;5.55;;;8.30;99.90;;;;;;5039109;28;25093;-72
2023/04/07 08:22:24;;;;;;;9.57;5.13;;;8.40;99.90;;;;;;5021700;28;25146;-72
2023/04/07 08:24:52;;;;;;;8.65;5.30;;;8.50;99.90;;;;;;5038692;28;25092;-72
2023/04/07 08:27:20;;;;;;;9.80;5.70;;;8.60;99.90;;;;;;5021012;28;25061;-71
2023/04/07 08:30:01;;;;;;;9.93;5.28;;;8.70;99.90;;;;;;5038378;28;25058;-71
2023/04/07 08:32:39;;;;;;;10.52;5.90;;;8.90;99.90;;;;;;5038763;28;25084;-72
2023/04/07 08:35:06;;;;;;;10.95;5.55;;;9.10;99.90;;;;;;5038581;28;25099;-71
2023/04/07 08:37:34;;;;;;;10.15;5.90;;;9.20;99.90;;;;;;5038232;28;25064;-71
2023/04/07 08:40:03;;;;;;;14.00;5.70;;;9.30;99.90;;;;;;5038172;28;25171;-72
2023/04/07 08:42:32;;;;;;;10.77;5.72;;;9.30;99.90;;;;;;5038070;28;25086;-72
2023/04/07 08:45:06;;;;;;;10.45;6.20;;;9.40;99.90;;;;;;5038617;28;25151;-72
2023/04/07 08:47:34;;;;;;;8.70;5.80;;;9.50;99.90;;;;;;5019308;28;25129;-72
2023/04/07 08:50:12;;;;;;;9.98;6.05;;;9.50;99.90;;;;;;5037722;28;25128;-68
2023/04/07 08:52:45;;;;;;;9.75;6.00;;;9.70;99.90;;;;;;5038102;28;25093;-68
2023/04/07 08:55:14;;;;;;;12.30;5.45;;;9.70;99.90;;;;;;5037979;28;25117;-69
2023/04/07 08:57:42;;;;;;;9.55;5.68;;;9.80;99.90;;;;;;5020240;28;25061;-69
2023/04/07 09:00:10;;;;;;;10.57;6.20;;;9.80;99.90;;;;;;5037826;28;25065;-69
2023/04/07 09:02:40;;;;;;;10.93;6.45;;;9.90;99.20;;;;;;5020264;28;25087;-69
2023/04/07 09:05:08;;;;;;;11.63;6.60;;;9.90;99.00;;;;;;5038358;28;25116;-69
2023/04/07 09:07:37;;;;;;;11.32;6.35;;;10.00;98.80;;;;;;5020048;28;25092;-69
2023/04/07 09:10:05;;;;;;;11.07;5.95;;;10.10;98.40;;;;;;5037476;28;25140;-69
2023/04/07 09:12:33;;;;;;;8.73;5.47;;;10.10;98.00;;;;;;5019811;28;25078;-69
2023/04/07 09:15:01;;;;;;;12.70;6.43;;;10.20;97.40;;;;;;5037501;28;25118;-69
2023/04/07 09:17:29;;;;;;;10.77;6.18;;;10.20;97.10;;;;;;5019859;28;25112;-69
2023/04/07 09:19:57;;;;;;;10.23;5.95;;;10.20;96.70;;;;;;5038017;28;25069;-68
2023/04/07 09:22:47;;;;;;;9.02;5.22;;;10.30;96.50;;;;;;5037822;28;25093;-68
2023/04/07 09:25:22;;;;;;;8.50;5.72;;;10.20;96.30;;;;;;5019719;28;25127;-69
2023/04/07 09:28:04;;;;;;;10.02;5.80;;;10.20;96.10;;;;;;5037357;28;25089;-69
2023/04/07 09:30:33;;;;;;;8.07;4.93;;;10.30;96.40;;;;;;5037772;28;25054;-69
2023/04/07 09:33:01;;;;;;;11.57;5.25;;;10.30;96.20;;;;;;5037111;28;25124;-71
2023/04/07 09:35:28;;;;;;;9.40;5.57;;;10.30;96.40;;;;;;5037743;28;25056;-70
2023/04/07 09:38:07;;;;;;;10.10;6.38;;;10.40;96.30;;;;;;5037361;28;25124;-71
2023/04/07 09:40:36;;;;;;;14.43;6.43;;;10.40;96.20;;;;;;5037756;28;25059;-71
2023/04/07 09:43:05;;;;;;;9.65;6.47;;;10.50;95.60;;;;;;5037014;28;25123;-71
2023/04/07 09:45:33;;;;;;;8.55;5.60;;;10.50;95.10;;;;;;5037547;28;25069;-71
2023/04/07 09:48:06;;;;;;;12.40;6.57;;;10.50;95.20;;;;;;5036823;28;25073;-71
2023/04/07 09:50:35;;;;;;;8.90;5.82;;;10.50;94.80;;;;;;5020885;28;25124;-71
2023/04/07 09:53:03;;;;;;;10.32;5.70;;;10.50;94.50;;;;;;5016860;28;25122;-71
2023/04/07 09:55:32;;;;;;;14.73;6.85;;;10.50;94.50;;;;;;4999632;28;25073;-71
2023/04/07 09:58:01;;;;;;;10.02;6.28;;;10.50;94.40;;;;;;5016631;28;25105;-72
2023/04/07 10:00:29;;;;;;;11.38;6.25;;;10.60;94.50;;;;;;5017420;28;25101;-72
2023/04/07 10:02:57;;;;;;;13.65;6.35;;;10.70;94.00;;;;;;4999762;28;25121;-72
2023/04/07 10:05:26;;;;;;;10.75;6.43;;;10.80;93.60;;;;;;5017290;28;25076;-71
2023/04/07 10:07:53;;;;;;;11.35;6.40;;;10.80;93.40;;;;;;5016736;28;25074;-71
2023/04/07 10:10:21;;;;;;;12.95;7.20;;;10.90;93.30;;;;;;5017002;28;25078;-71
2023/04/07 10:12:51;;;;;;;13.07;7.22;;;10.90;92.80;;;;;;5017359;28;25080;-72
2023/04/07 10:15:18;;;;;;;8.57;5.90;;;11.00;92.70;;;;;;5017350;28;25071;-72
2023/04/07 10:17:47;;;;;;;9.40;6.68;;;11.00;93.10;;;;;;5016608;28;25084;-71
2023/04/07 10:20:17;;;;;;;11.52;7.97;;;11.10;92.20;;;;;;4999427;28;25076;-72
2023/04/07 10:22:47;;;;;;;11.68;6.72;;;11.10;91.10;;;;;;4999104;28;25155;-71
2023/04/07 10:25:19;;;;;;;10.98;6.90;;;11.20;91.10;;;;;;5016429;28;25060;-71
2023/04/07 10:28:10;;;;;;;14.35;7.60;;;11.20;91.10;;;;;;5016506;28;25047;-72
2023/04/07 10:30:39;;;;;;;10.93;6.88;;;11.30;91.30;;;;;;5016961;28;25149;-71
2023/04/07 10:33:07;;;;;;;15.45;7.03;;;11.30;91.30;;;;;;4999056;28;25068;-71
2023/04/07 10:36:06;;;;;;;14.50;7.75;;;11.40;90.80;;;;;;5016398;28;25085;-71
2023/04/07 10:38:32;;;;;;;11.70;6.80;;;11.50;90.70;;;;;;5016665;28;25071;-71
2023/04/07 10:41:00;;;;;;;18.67;9.95;;;11.50;90.00;;;;;;5016469;28;25106;-71
2023/04/07 10:43:40;;;;;;;10.60;6.53;;;11.60;90.40;;;;;;5016990;28;25076;-71
2023/04/07 10:46:07;;;;;;;12.13;7.10;;;11.70;87.70;;;;;;5016819;28;25055;-71
2023/04/07 10:48:35;;;;;;;16.25;8.00;;;11.70;86.00;;;;;;4998837;28;25096;-71
2023/04/07 10:51:14;;;;;;;12.82;6.65;;;11.70;86.80;;;;;;5016175;28;25057;-72
2023/04/07 10:54:19;;;;;;;11.82;7.32;;;11.90;85.70;;;;;;5016139;28;25052;-71
2023/04/07 10:57:07;;;;;;;11.57;6.85;;;12.00;85.80;;;;;;5016293;28;25057;-71
2023/04/07 11:00:05;;;;;;;14.80;7.55;;;12.20;83.90;;;;;;5016679;28;25066;-71
2023/04/07 11:02:32;;;;;;;11.68;7.10;;;12.20;83.10;;;;;;4986312;28;25085;-72
2023/04/07 11:05:01;;;;;;;13.52;7.47;;;12.40;82.50;;;;;;4998798;28;25097;-71
2023/04/07 11:07:49;;;;;;;12.10;7.47;;;12.40;82.00;;;;;;5016723;28;25127;-70
2023/04/07 11:10:18;;;;;;;12.63;7.57;;;12.50;81.20;;;;;;5017087;28;25075;-70
2023/04/07 11:13:02;;;;;;;12.93;6.80;;;12.60;81.20;;;;;;5019798;28;25073;-71
2023/04/07 11:15:30;;;;;;;11.60;6.32;;;12.70;80.30;;;;;;5020460;28;25147;-71
2023/04/07 11:18:15;;;;;;;16.10;8.50;;;12.80;78.70;;;;;;5019835;28;25074;-72
2023/04/07 11:20:48;;;;;;;14.05;7.20;;;12.80;78.20;;;;;;5020699;28;25100;-71
2023/04/07 11:23:17;;;;;;;14.80;6.78;;;12.90;78.40;;;;;;5002331;28;25110;-71
2023/04/07 11:25:46;;;;;;;14.30;7.47;;;13.00;75.60;;;;;;5020474;28;25103;-71
2023/04/07 11:28:14;;;;;;;17.10;8.18;;;13.00;76.00;;;;;;5002339;28;25066;-72
2023/04/07 11:30:53;;;;;;;13.07;7.93;;;13.10;76.70;;;;;;5002306;28;25081;-72
2023/04/07 11:33:23;;;;;;;10.40;5.97;;;13.20;76.00;;;;;;5019542;28;25118;-71
2023/04/07 11:35:56;;;;;;;14.38;6.05;;;13.40;73.80;;;;;;5019780;28;25115;-71
2023/04/07 11:38:29;;;;;;;13.32;8.45;;;13.50;72.70;;;;;;5019385;28;25061;-71
2023/04/07 11:41:09;;;;;;;15.32;8.75;;;13.60;72.30;;;;;;5019461;28;25068;-71
2023/04/07 11:43:40;;;;;;;11.25;6.30;;;13.70;73.00;;;;;;5019458;28;25068;-71
2023/04/07 11:46:10;;;;;;;13.88;8.18;;;13.80;70.40;;;;;;5019564;28;25105;-72
2023/04/07 11:48:40;;;;;;;12.05;6.63;;;13.80;69.60;;;;;;5001939;28;25112;-72
2023/04/07 11:51:17;;;;;;;11.90;6.97;;;13.80;70.30;;;;;;5019582;28;25123;-72
2023/04/07 11:53:44;;;;;;;13.07;7.85;;;13.80;69.50;;;;;;5019726;28;25066;-72
2023/04/07 11:56:17;;;;;;;12.32;6.63;;;13.80;66.90;;;;;;5019839;28;25048;-72
2023/04/07 11:58:52;;;;;;;11.70;6.65;;;13.80;66.50;;;;;;5019266;28;25067;-71
2023/04/07 12:01:20;;;;;;;12.32;6.50;;;13.90;66.60;;;;;;5001756;28;25128;-72
2023/04/07 12:04:03;;;;;;;12.38;7.43;;;13.90;67.00;;;;;;5001760;28;25074;-72
2023/04/07 12:06:37;;;;;;;18.88;11.10;;;14.00;68.20;;;;;;5019678;28;25095;-72
2023/04/07 12:09:06;;;;;;;12.18;7.35;;;14.10;66.80;;;;;;5019548;28;25068;-72
2023/04/07 12:11:35;;;;;;;11.32;6.43;;;14.20;64.90;;;;;;5019130;28;25070;-72
2023/04/07 12:14:04;;;;;;;12.45;6.20;;;14.30;64.50;;;;;;5018968;28;25140;-72
2023/04/07 12:16:31;;;;;;;17.15;7.22;;;14.30;64.50;;;;;;5019561;28;25117;-71
2023/04/07 12:19:00;;;;;;;12.50;6.88;;;14.50;64.10;;;;;;5018849;28;25137;-72
2023/04/07 12:21:27;;;;;;;13.45;7.00;;;14.60;64.40;;;;;;5018728;28;25082;-72
2023/04/07 12:23:54;;;;;;;12.20;6.88;;;14.80;61.90;;;;;;5018702;28;25080;-72
2023/04/07 12:26:22;;;;;;;13.15;7.53;;;15.00;61.60;;;;;;5019276;28;25121;-72
2023/04/07 12:28:49;;;;;;;9.35;6.45;;;15.00;61.10;;;;;;5001271;28;25082;-71
2023/04/07 12:31:16;;;;;;;12.27;7.10;;;15.10;59.60;;;;;;5018743;28;25118;-72
2023/04/07 12:33:44;;;;;;;10.95;6.07;;;15.20;60.10;;;;;;5019121;28;25049;-71
2023/04/07 12:36:11;;;;;;;12.60;7.93;;;15.30;60.20;;;;;;5018565;28;25052;-71
2023/04/07 12:38:39;;;;;;;11.70;7.13;;;15.40;61.10;;;;;;5018375;28;25113;-72
2023/04/07 12:41:07;;;;;;;12.82;8.30;;;15.50;59.90;;;;;;5018577;28;25083;-71
2023/04/07 12:43:34;;;;;;;10.30;7.15;;;15.50;59.20;;;;;;5018381;28;25114;-71
2023/04/07 12:46:02;;;;;;;10.55;6.78;;;15.60;58.00;;;;;;5000874;28;25057;-71
2023/04/07 12:48:29;;;;;;;11.48;7.22;;;15.70;57.50;;;;;;5018316;28;25072;-72
2023/04/07 12:50:56;;;;;;;8.48;5.93;;;15.70;57.00;;;;;;5037068;28;25068;-72
2023/04/07 12:53:23;;;;;;;11.68;7.63;;;15.70;55.90;;;;;;5038339;28;25106;-72
2023/04/07 12:55:50;;;;;;;9.20;6.10;;;15.80;56.20;;;;;;5038521;28;25070;-71
2023/04/07 12:58:18;;;;;;;12.13;6.00;;;15.80;55.20;;;;;;5020299;28;25063;-72